Time;durP1;ratioP1;P1;durP2;ratioP2;P2;SDS_P1;SDS_P2;PMS_P1;PMS_P2;Temp;Humidity;BMP_temperature;BMP_pressure;BME280_temperature;BME280_humidity;BME280_pressure;Samples;Min_cycle;Max_cycle;Signal;HPM_P1;HPM_P2
2023/01/14 00:00:49;;;;;;;13.90;2.97;;;;;;;;;;4974903;28;20113;-71
2023/01/14 00:03:15;;;;;;;10.13;2.10;;;;;;;;;;4975844;28;20061;-72
2023/01/14 00:05:41;;;;;;;6.68;2.03;;;;;;;;;;4969888;28;20064;-72
2023/01/14 00:08:08;;;;;;;5.65;1.90;;;;;;;;;;4977571;28;20034;-72
2023/01/14 00:10:34;;;;;;;9.88;2.63;;;;;;;;;;4975724;28;20038;-71
2023/01/14 00:13:00;;;;;;;6.78;2.10;;;;;;;;;;4972968;28;20114;-72
2023/01/14 00:15:26;;;;;;;5.45;2.25;;;;;;;;;;4973914;28;20430;-72
2023/01/14 00:17:52;;;;;;;9.50;2.00;;;;;;;;;;4977230;28;20387;-72
2023/01/14 00:20:19;;;;;;;7.07;2.20;;;;;;;;;;4972456;28;20858;-71
2023/01/14 00:22:45;;;;;;;4.53;1.92;;;;;;;;;;4973979;28;20034;-71
2023/01/14 00:25:11;;;;;;;9.90;2.10;;;;;;;;;;4975837;28;20039;-71
2023/01/14 00:27:37;;;;;;;8.73;2.00;;;;;;;;;;4978665;28;20027;-71
2023/01/14 00:30:04;;;;;;;9.60;2.15;;;;;;;;;;4976168;28;20145;-71
2023/01/14 00:32:30;;;;;;;7.50;1.88;;;;;;;;;;4971084;28;20027;-72
2023/01/14 00:34:56;;;;;;;7.97;1.70;;;;;;;;;;4978635;28;20019;-71
2023/01/14 00:37:22;;;;;;;9.00;1.50;;;;;;;;;;4976371;28;20030;-72
2023/01/14 00:39:49;;;;;;;5.20;1.85;;;;;;;;;;4975662;28;20113;-70
2023/01/14 00:42:15;;;;;;;10.18;2.30;;;;;;;;;;4972324;28;20503;-72
2023/01/14 00:44:41;;;;;;;6.78;2.13;;;;;;;;;;4973682;28;20050;-71
2023/01/14 00:47:07;;;;;;;10.93;2.10;;;;;;;;;;4982181;28;20022;-71
2023/01/14 00:49:33;;;;;;;4.95;1.40;;;;;;;;;;4978660;28;20030;-71
2023/01/14 00:52:01;;;;;;;8.20;1.73;;;;;;;;;;4976230;28;20091;-70
2023/01/14 00:54:28;;;;;;;5.82;1.60;;;;;;;;;;4978326;28;20861;-71
2023/01/14 00:56:54;;;;;;;5.00;1.20;;;;;;;;;;4978607;28;20101;-70
2023/01/14 00:59:24;;;;;;;7.05;1.63;;;;;;;;;;4977586;28;20029;-71
2023/01/14 01:01:51;;;;;;;8.02;2.00;;;;;;;;;;4979031;28;20117;-71
2023/01/14 01:04:17;;;;;;;3.15;1.52;;;;;;;;;;4975814;28;20124;-71
2023/01/14 01:06:44;;;;;;;7.82;2.53;;;;;;;;;;4978084;28;20026;-70
2023/01/14 01:09:10;;;;;;;9.43;3.15;;;;;;;;;;4973485;28;20513;-72
2023/01/14 01:11:36;;;;;;;4.38;1.40;;;;;;;;;;4978482;28;20499;-71
2023/01/14 01:14:02;;;;;;;5.97;1.77;;;;;;;;;;4976497;28;20589;-71
2023/01/14 01:16:28;;;;;;;8.57;2.40;;;;;;;;;;4977747;28;20073;-71
2023/01/14 01:18:56;;;;;;;6.28;1.65;;;;;;;;;;4976650;28;20040;-70
2023/01/14 01:21:22;;;;;;;5.88;1.88;;;;;;;;;;4975059;28;20132;-71
2023/01/14 01:23:49;;;;;;;11.10;2.08;;;;;;;;;;4976965;28;20057;-71
2023/01/14 01:26:16;;;;;;;7.15;1.77;;;;;;;;;;4977225;28;20061;-70
2023/01/14 01:28:43;;;;;;;8.52;2.20;;;;;;;;;;4978859;28;20133;-70
2023/01/14 01:31:13;;;;;;;7.88;1.67;;;;;;;;;;4973935;28;20026;-71
2023/01/14 01:33:39;;;;;;;7.47;1.88;;;;;;;;;;4977566;28;20088;-71
2023/01/14 01:36:06;;;;;;;6.25;2.35;;;;;;;;;;4975676;28;20023;-71
2023/01/14 01:38:32;;;;;;;8.82;2.08;;;;;;;;;;4975621;28;20039;-71
2023/01/14 01:40:59;;;;;;;8.18;2.00;;;;;;;;;;4975692;28;20054;-71
2023/01/14 01:43:26;;;;;;;5.43;1.65;;;;;;;;;;4973567;28;20410;-72
2023/01/14 01:45:53;;;;;;;7.65;1.80;;;;;;;;;;4978857;28;20036;-71
2023/01/14 01:48:27;;;;;;;10.85;1.67;;;;;;;;;;4972819;28;20414;-71
2023/01/14 01:50:56;;;;;;;7.13;2.08;;;;;;;;;;4977369;28;20101;-71
2023/01/14 01:53:23;;;;;;;8.90;2.00;;;;;;;;;;4977513;28;20816;-71
2023/01/14 01:55:56;;;;;;;6.78;1.90;;;;;;;;;;4974458;28;20027;-71
2023/01/14 01:58:23;;;;;;;10.02;2.20;;;;;;;;;;4977991;28;20026;-71
2023/01/14 02:00:49;;;;;;;13.43;2.58;;;;;;;;;;4974960;28;20037;-70
2023/01/14 02:03:23;;;;;;;9.63;1.63;;;;;;;;;;4980688;28;20058;-70
2023/01/14 02:05:49;;;;;;;9.95;2.22;;;;;;;;;;4981316;28;20054;-71
2023/01/14 02:08:15;;;;;;;8.88;2.38;;;;;;;;;;4974462;28;20026;-71
2023/01/14 02:10:41;;;;;;;8.75;2.08;;;;;;;;;;4980154;28;20115;-71
2023/01/14 02:13:26;;;;;;;10.27;1.70;;;;;;;;;;4971472;28;20018;-71
2023/01/14 02:16:04;;;;;;;7.80;1.98;;;;;;;;;;4982656;28;20058;-71
2023/01/14 02:18:43;;;;;;;6.85;1.63;;;;;;;;;;4976647;28;20088;-71
2023/01/14 02:21:29;;;;;;;9.30;2.30;;;;;;;;;;4976270;28;20117;-71
2023/01/14 02:24:04;;;;;;;8.48;2.30;;;;;;;;;;4979754;28;20410;-70
2023/01/14 02:26:49;;;;;;;9.38;1.75;;;;;;;;;;4977099;28;20440;-71
2023/01/14 02:29:36;;;;;;;7.00;2.00;;;;;;;;;;4976909;28;20026;-72
2023/01/14 02:32:02;;;;;;;11.25;1.95;;;;;;;;;;4976654;28;20054;-72
2023/01/14 02:34:47;;;;;;;6.45;1.88;;;;;;;;;;4981945;28;20026;-72
2023/01/14 02:37:15;;;;;;;12.63;2.03;;;;;;;;;;4976266;28;20033;-72
2023/01/14 02:39:48;;;;;;;6.10;1.40;;;;;;;;;;4979527;28;20033;-71
2023/01/14 02:45:16;;;;;;;7.97;1.92;;;;;;;;;;4979762;28;20050;-72
2023/01/14 02:47:42;;;;;;;11.73;2.83;;;;;;;;;;4977935;28;20803;-72
2023/01/14 02:50:10;;;;;;;12.48;2.22;;;;;;;;;;4978701;28;20022;-72
2023/01/14 02:52:36;;;;;;;11.43;2.00;;;;;;;;;;4975543;28;20038;-71
2023/01/14 02:55:02;;;;;;;6.78;1.95;;;;;;;;;;4978601;28;20031;-72
2023/01/14 02:57:38;;;;;;;6.72;1.77;;;;;;;;;;4982356;28;20522;-71
2023/01/14 03:00:19;;;;;;;9.48;2.30;;;;;;;;;;4976903;28;20673;-72
2023/01/14 03:02:52;;;;;;;15.40;2.15;;;;;;;;;;4973728;28;20084;-71
2023/01/14 03:05:23;;;;;;;8.30;2.00;;;;;;;;;;4974907;28;20049;-72
2023/01/14 03:07:49;;;;;;;8.43;1.80;;;;;;;;;;4981294;28;20072;-72
2023/01/14 03:10:28;;;;;;;12.05;2.35;;;;;;;;;;4974448;28;20093;-72
2023/01/14 03:13:12;;;;;;;5.28;2.47;;;;;;;;;;4974750;28;20034;-72
2023/01/14 03:15:56;;;;;;;4.85;1.90;;;;;;;;;;4973169;28;20101;-72
2023/01/14 03:18:22;;;;;;;4.93;1.77;;;;;;;;;;4983624;28;20088;-72
2023/01/14 03:20:52;;;;;;;9.77;2.13;;;;;;;;;;4978764;28;20053;-72
2023/01/14 03:23:20;;;;;;;8.25;2.58;;;;;;;;;;4983103;28;20026;-71
2023/01/14 03:25:47;;;;;;;6.88;1.73;;;;;;;;;;4982708;28;20125;-72
2023/01/14 03:28:17;;;;;;;9.30;1.98;;;;;;;;;;4986255;28;20022;-71
2023/01/14 03:30:47;;;;;;;8.60;1.75;;;;;;;;;;4979467;28;20110;-71
2023/01/14 03:33:19;;;;;;;5.85;1.77;;;;;;;;;;4981817;28;21474;-71
2023/01/14 03:35:48;;;;;;;9.90;2.17;;;;;;;;;;4976461;28;20029;-71
2023/01/14 03:38:43;;;;;;;4.93;1.42;;;;;;;;;;4983898;28;20030;-70
2023/01/14 03:41:11;;;;;;;11.85;2.92;;;;;;;;;;4964512;28;20125;-71
2023/01/14 03:43:51;;;;;;;6.90;1.40;;;;;;;;;;4981849;28;20031;-70
2023/01/14 03:46:18;;;;;;;7.75;1.70;;;;;;;;;;4985973;28;20486;-71
2023/01/14 03:48:44;;;;;;;8.18;1.88;;;;;;;;;;4982614;28;20060;-71
2023/01/14 03:51:10;;;;;;;5.75;1.45;;;;;;;;;;4981835;28;20030;-70
2023/01/14 03:53:42;;;;;;;3.65;1.48;;;;;;;;;;4983760;28;20026;-71
2023/01/14 03:56:08;;;;;;;7.80;1.38;;;;;;;;;;4979860;28;20030;-71
2023/01/14 03:58:40;;;;;;;7.80;2.58;;;;;;;;;;4980503;28;20038;-71
2023/01/14 04:01:06;;;;;;;;;;;;;;;;;;4977514;28;20177;-71
2023/01/14 04:03:32;;;;;;;7.65;1.83;;;;;;;;;;4981965;28;20461;-71
2023/01/14 04:05:59;;;;;;;4.32;1.50;;;;;;;;;;4978718;28;20026;-71
2023/01/14 04:08:25;;;;;;;5.30;1.50;;;;;;;;;;4981449;28;20485;-70
2023/01/14 04:10:52;;;;;;;7.85;1.50;;;;;;;;;;4976039;28;20054;-71
2023/01/14 04:16:03;;;;;;;9.75;1.63;;;;;;;;;;4973153;28;20049;-71
2023/01/14 04:18:30;;;;;;;8.32;1.77;;;;;;;;;;4971706;28;20027;-71
2023/01/14 04:20:56;;;;;;;5.05;1.45;;;;;;;;;;4971781;28;20109;-71
2023/01/14 04:23:22;;;;;;;5.57;1.45;;;;;;;;;;4978865;28;20668;-71
2023/01/14 04:25:48;;;;;;;5.15;1.38;;;;;;;;;;4976719;28;20538;-71
2023/01/14 04:28:14;;;;;;;4.00;1.45;;;;;;;;;;4981310;28;20046;-70
2023/01/14 04:30:41;;;;;;;8.50;1.80;;;;;;;;;;4977375;28;20054;-71
2023/01/14 04:33:07;;;;;;;2.53;1.27;;;;;;;;;;4976682;28;20018;-70
2023/01/14 04:35:33;;;;;;;8.57;1.83;;;;;;;;;;4982705;28;20085;-71
2023/01/14 04:37:59;;;;;;;4.70;1.55;;;;;;;;;;4978673;28;20030;-71
2023/01/14 04:40:26;;;;;;;6.43;2.25;;;;;;;;;;4981642;28;20122;-71
2023/01/14 04:42:52;;;;;;;6.75;1.50;;;;;;;;;;4978172;28;20736;-71
2023/01/14 04:45:18;;;;;;;6.05;1.33;;;;;;;;;;4979731;28;20566;-71
2023/01/14 04:47:44;;;;;;;5.53;1.30;;;;;;;;;;4977493;28;20030;-71
2023/01/14 04:50:32;;;;;;;5.65;1.70;;;;;;;;;;4980159;28;20026;-71
2023/01/14 04:53:12;;;;;;;9.57;1.73;;;;;;;;;;4978711;28;20125;-71
2023/01/14 04:55:39;;;;;;;6.45;1.60;;;;;;;;;;4980205;28;20534;-71
2023/01/14 04:58:05;;;;;;;8.57;1.42;;;;;;;;;;4978974;28;20030;-71
2023/01/14 05:00:32;;;;;;;5.53;1.60;;;;;;;;;;4977932;28;20129;-70
2023/01/14 05:02:58;;;;;;;8.55;1.35;;;;;;;;;;4979931;28;20054;-71
2023/01/14 05:05:24;;;;;;;4.85;1.50;;;;;;;;;;4978985;28;20045;-71
2023/01/14 05:07:50;;;;;;;11.57;1.75;;;;;;;;;;4979154;28;20018;-71
2023/01/14 05:10:17;;;;;;;4.57;1.90;;;;;;;;;;4979800;28;20030;-71
2023/01/14 05:12:55;;;;;;;7.60;1.90;;;;;;;;;;4979307;28;20084;-70
2023/01/14 05:15:42;;;;;;;8.85;2.05;;;;;;;;;;4981192;28;20532;-71
2023/01/14 05:18:09;;;;;;;5.07;1.52;;;;;;;;;;4978292;28;20022;-71
2023/01/14 05:20:36;;;;;;;7.30;1.77;;;;;;;;;;4980817;28;20034;-71
2023/01/14 05:23:03;;;;;;;5.95;1.30;;;;;;;;;;4976141;28;20065;-71
2023/01/14 05:25:31;;;;;;;5.47;1.23;;;;;;;;;;4981737;28;20045;-71
2023/01/14 05:28:02;;;;;;;7.78;1.80;;;;;;;;;;4976828;28;20051;-72
2023/01/14 05:30:28;;;;;;;7.85;1.40;;;;;;;;;;4975213;28;20035;-71
2023/01/14 05:32:54;;;;;;;2.20;0.90;;;;;;;;;;4976491;28;20029;-71
2023/01/14 05:35:21;;;;;;;3.85;1.40;;;;;;;;;;4975636;28;20048;-71
2023/01/14 05:37:47;;;;;;;4.30;1.25;;;;;;;;;;4979105;28;20019;-70
2023/01/14 05:40:13;;;;;;;7.20;1.60;;;;;;;;;;4970238;28;20037;-71
2023/01/14 05:45:48;;;;;;;7.03;1.95;;;;;;;;;;4973086;28;20051;-71
2023/01/14 05:48:15;;;;;;;5.75;3.28;;;;;;;;;;4974348;28;20023;-71
2023/01/14 05:50:41;;;;;;;5.55;1.33;;;;;;;;;;4974281;28;20384;-70
2023/01/14 05:53:07;;;;;;;12.25;1.80;;;;;;;;;;4977253;28;20495;-71
2023/01/14 05:55:34;;;;;;;9.45;1.83;;;;;;;;;;4974200;28;20022;-71
2023/01/14 05:58:01;;;;;;;3.95;1.50;;;;;;;;;;4972728;28;20030;-71
2023/01/14 06:08:33;;;;;;;8.60;1.30;;;;;;;;;;4979562;28;20037;-70
2023/01/14 06:11:00;;;;;;;8.38;1.50;;;;;;;;;;4974570;28;20037;-71
2023/01/14 06:13:26;;;;;;;4.45;1.35;;;;;;;;;;4976602;28;20488;-71
2023/01/14 06:15:55;;;;;;;7.47;1.80;;;;;;;;;;4973449;28;20110;-71
2023/01/14 06:18:22;;;;;;;6.80;1.35;;;;;;;;;;4975341;28;20113;-71
2023/01/14 06:20:52;;;;;;;7.45;1.50;;;;;;;;;;4970946;28;20026;-71
2023/01/14 06:23:19;;;;;;;9.10;1.73;;;;;;;;;;4972878;28;20583;-71
2023/01/14 06:25:46;;;;;;;7.57;1.20;;;;;;;;;;4977543;28;20026;-71
2023/01/14 06:28:13;;;;;;;6.05;1.33;;;;;;;;;;4971781;28;20045;-71
2023/01/14 06:30:40;;;;;;;5.93;1.58;;;;;;;;;;4977176;28;20451;-71
2023/01/14 06:33:06;;;;;;;8.80;1.38;;;;;;;;;;4973270;28;20542;-71
2023/01/14 06:35:32;;;;;;;7.95;1.52;;;;;;;;;;4977995;28;20037;-72
2023/01/14 06:37:59;;;;;;;3.13;1.02;;;;;;;;;;4974065;28;20030;-71
2023/01/14 06:40:25;;;;;;;6.22;1.13;;;;;;;;;;4976354;28;20758;-71
2023/01/14 06:42:54;;;;;;;7.30;1.67;;;;;;;;;;4972429;28;20572;-71
2023/01/14 06:45:21;;;;;;;13.82;1.42;;;;;;;;;;4973824;28;20045;-71
2023/01/14 06:47:48;;;;;;;5.88;1.27;;;;;;;;;;4980382;28;20029;-71
2023/01/14 06:50:17;;;;;;;5.57;1.30;;;;;;;;;;4970723;28;20030;-70
2023/01/14 06:52:43;;;;;;;9.27;1.52;;;;;;;;;;4977562;28;20483;-71
2023/01/14 06:55:09;;;;;;;9.65;1.77;;;;;;;;;;4972680;28;20647;-72
2023/01/14 06:57:35;;;;;;;5.20;1.08;;;;;;;;;;4976369;28;20031;-71
2023/01/14 07:00:01;;;;;;;3.88;1.35;;;;;;;;;;4974384;28;20019;-70
2023/01/14 07:02:28;;;;;;;8.80;1.50;;;;;;;;;;4975836;28;20096;-71
2023/01/14 07:04:54;;;;;;;4.20;1.20;;;;;;;;;;4975156;28;20507;-70
2023/01/14 07:07:20;;;;;;;9.02;1.80;;;;;;;;;;4978431;28;20010;-71
2023/01/14 07:09:46;;;;;;;6.80;1.45;;;;;;;;;;4977411;28;20068;-71
2023/01/14 07:12:12;;;;;;;6.82;1.45;;;;;;;;;;4980171;28;20036;-71
2023/01/14 07:14:38;;;;;;;7.20;1.98;;;;;;;;;;4976865;28;20034;-71
2023/01/14 07:17:05;;;;;;;10.38;1.60;;;;;;;;;;4981466;28;20023;-71
2023/01/14 07:19:31;;;;;;;5.25;2.05;;;;;;;;;;4981963;28;20031;-71
2023/01/14 07:21:57;;;;;;;4.82;1.17;;;;;;;;;;4978025;28;20037;-71
2023/01/14 07:24:23;;;;;;;8.43;1.70;;;;;;;;;;4979107;28;20322;-70
2023/01/14 07:26:49;;;;;;;5.72;1.48;;;;;;;;;;4978305;28;20625;-71
2023/01/14 07:29:15;;;;;;;6.82;1.45;;;;;;;;;;4980915;28;20117;-70
2023/01/14 07:31:42;;;;;;;10.30;2.35;;;;;;;;;;4976842;28;20271;-70
2023/01/14 07:34:08;;;;;;;6.47;1.33;;;;;;;;;;4981499;28;20057;-70
2023/01/14 07:36:34;;;;;;;4.03;1.67;;;;;;;;;;4976191;28;20015;-71
2023/01/14 07:39:00;;;;;;;8.13;1.23;;;;;;;;;;4980403;28;20080;-71
2023/01/14 07:41:26;;;;;;;8.27;1.30;;;;;;;;;;4981990;28;20380;-72
2023/01/14 07:43:52;;;;;;;7.32;1.42;;;;;;;;;;4982423;28;20096;-71
2023/01/14 07:46:19;;;;;;;4.40;1.20;;;;;;;;;;4983287;28;20061;-70
2023/01/14 07:48:45;;;;;;;8.02;1.80;;;;;;;;;;4980585;28;20050;-70
2023/01/14 07:51:12;;;;;;;4.35;1.50;;;;;;;;;;4981680;28;20057;-71
2023/01/14 07:53:38;;;;;;;4.70;1.45;;;;;;;;;;4985153;28;20018;-70
2023/01/14 07:56:06;;;;;;;7.03;1.90;;;;;;;;;;4984133;28;20092;-71
2023/01/14 07:58:32;;;;;;;5.78;1.70;;;;;;;;;;4980535;28;20522;-71
2023/01/14 08:00:59;;;;;;;3.53;1.55;;;;;;;;;;4983948;28;20032;-71
2023/01/14 08:03:25;;;;;;;5.78;2.30;;;;;;;;;;4981348;28;20590;-70
2023/01/14 08:05:52;;;;;;;6.35;1.80;;;;;;;;;;4983175;28;20498;-71
2023/01/14 08:08:18;;;;;;;4.88;1.70;;;;;;;;;;4981018;28;20026;-71
2023/01/14 08:10:45;;;;;;;6.78;2.05;;;;;;;;;;4981405;28;20031;-71
2023/01/14 08:13:14;;;;;;;8.23;2.67;;;;;;;;;;4980024;28;20022;-70
2023/01/14 08:15:40;;;;;;;5.03;1.80;;;;;;;;;;4982771;28;20030;-71
2023/01/14 08:18:06;;;;;;;7.97;1.92;;;;;;;;;;4984617;28;20353;-71
2023/01/14 08:20:33;;;;;;;13.02;3.20;;;;;;;;;;4979875;28;20459;-71
2023/01/14 08:23:01;;;;;;;13.65;2.40;;;;;;;;;;4983821;28;20430;-71
2023/01/14 08:25:28;;;;;;;8.75;2.40;;;;;;;;;;4978438;28;20521;-71
2023/01/14 08:27:55;;;;;;;5.70;1.95;;;;;;;;;;4979512;28;20403;-72
2023/01/14 08:30:21;;;;;;;5.20;1.67;;;;;;;;;;4980416;28;20467;-71
2023/01/14 08:32:50;;;;;;;9.43;2.30;;;;;;;;;;4981791;28;20534;-70
2023/01/14 08:35:16;;;;;;;7.03;1.63;;;;;;;;;;4984424;28;20602;-71
2023/01/14 08:37:45;;;;;;;4.80;1.65;;;;;;;;;;4982160;28;20033;-70
2023/01/14 08:40:12;;;;;;;7.07;2.13;;;;;;;;;;4983622;28;20025;-70
2023/01/14 08:42:38;;;;;;;8.70;2.55;;;;;;;;;;4978728;28;20056;-71
2023/01/14 08:45:04;;;;;;;5.82;1.98;;;;;;;;;;4983030;28;20038;-71
2023/01/14 08:47:30;;;;;;;7.07;2.20;;;;;;;;;;4984609;28;20064;-71
2023/01/14 08:49:56;;;;;;;7.47;2.42;;;;;;;;;;4984239;28;20030;-71
2023/01/14 08:52:23;;;;;;;5.82;1.15;;;;;;;;;;4984145;28;20098;-72
2023/01/14 08:54:49;;;;;;;8.82;1.40;;;;;;;;;;4980797;28;20050;-70
2023/01/14 08:57:15;;;;;;;3.33;1.10;;;;;;;;;;4984885;28;20041;-70
2023/01/14 08:59:41;;;;;;;3.13;1.05;;;;;;;;;;4979181;28;20057;-70
2023/01/14 09:02:11;;;;;;;3.85;1.10;;;;;;;;;;4984178;28;20018;-71
2023/01/14 09:04:37;;;;;;;3.40;0.90;;;;;;;;;;4976885;28;20051;-71
2023/01/14 09:18:03;;;;;;;6.35;1.10;;;;;;;;;;4984204;28;20119;-71
2023/01/14 09:20:31;;;;;;;8.30;2.22;;;;;;;;;;4985791;28;20056;-72
2023/01/14 09:22:58;;;;;;;7.75;1.63;;;;;;;;;;4987959;28;20110;-70
2023/01/14 09:25:24;;;;;;;4.13;1.40;;;;;;;;;;4986926;28;20438;-71
2023/01/14 09:27:50;;;;;;;4.68;1.55;;;;;;;;;;4986843;28;20024;-71
2023/01/14 09:30:16;;;;;;;6.03;1.70;;;;;;;;;;4985610;28;20038;-70
2023/01/14 09:32:42;;;;;;;5.97;1.95;;;;;;;;;;4984619;28;20560;-71
2023/01/14 09:35:12;;;;;;;8.52;2.17;;;;;;;;;;4981900;28;20029;-71
2023/01/14 09:37:38;;;;;;;4.85;2.03;;;;;;;;;;4984229;28;20140;-70
2023/01/14 09:40:04;;;;;;;6.90;1.85;;;;;;;;;;4985352;28;20033;-70
2023/01/14 09:42:48;;;;;;;5.55;1.90;;;;;;;;;;4981479;28;20502;-71
2023/01/14 09:45:33;;;;;;;9.52;1.80;;;;;;;;;;4985839;28;20108;-71
2023/01/14 09:48:03;;;;;;;8.38;2.47;;;;;;;;;;4982398;28;20042;-70
2023/01/14 09:50:29;;;;;;;4.72;1.73;;;;;;;;;;4986035;28;20390;-71
2023/01/14 09:53:01;;;;;;;8.07;2.28;;;;;;;;;;4982755;28;20033;-71
2023/01/14 09:55:34;;;;;;;8.30;2.20;;;;;;;;;;4983555;28;20038;-71
2023/01/14 09:58:13;;;;;;;9.70;1.88;;;;;;;;;;4985997;28;20022;-71
2023/01/14 10:00:42;;;;;;;4.57;1.40;;;;;;;;;;4982923;28;20254;-71
2023/01/14 10:03:14;;;;;;;4.30;1.50;;;;;;;;;;4986686;28;20042;-71
2023/01/14 10:05:42;;;;;;;8.93;1.50;;;;;;;;;;4978759;28;20439;-71
2023/01/14 10:08:14;;;;;;;2.88;0.98;;;;;;;;;;4979865;28;20030;-70
2023/01/14 10:10:41;;;;;;;9.52;1.33;;;;;;;;;;4983227;28;20040;-71
2023/01/14 10:13:14;;;;;;;4.72;1.30;;;;;;;;;;4979044;28;20014;-71
2023/01/14 10:15:41;;;;;;;7.38;1.48;;;;;;;;;;4984835;28;20050;-71
2023/01/14 10:18:20;;;;;;;5.28;1.33;;;;;;;;;;4982683;28;20045;-71
2023/01/14 10:20:51;;;;;;;5.32;1.10;;;;;;;;;;4982812;28;20026;-70
2023/01/14 10:23:33;;;;;;;4.75;1.30;;;;;;;;;;4981500;28;20034;-71
2023/01/14 10:26:01;;;;;;;9.57;1.63;;;;;;;;;;4985235;28;20042;-70
2023/01/14 10:28:28;;;;;;;6.30;1.38;;;;;;;;;;4983516;28;20026;-71
2023/01/14 10:30:54;;;;;;;7.10;1.27;;;;;;;;;;4983957;28;20022;-72
2023/01/14 10:33:21;;;;;;;9.52;1.40;;;;;;;;;;4984449;28;20023;-71
2023/01/14 10:35:52;;;;;;;6.20;1.15;;;;;;;;;;4981786;28;20598;-71
2023/01/14 10:38:21;;;;;;;3.22;1.27;;;;;;;;;;4984639;28;20034;-71
2023/01/14 10:40:47;;;;;;;7.25;2.08;;;;;;;;;;4985025;28;20049;-71
2023/01/14 10:43:21;;;;;;;6.43;1.40;;;;;;;;;;4981627;28;20689;-71
2023/01/14 10:45:47;;;;;;;6.38;1.40;;;;;;;;;;4984452;28;20129;-72
2023/01/14 10:48:17;;;;;;;6.13;1.38;;;;;;;;;;4979043;28;20098;-71
2023/01/14 10:50:43;;;;;;;5.43;1.45;;;;;;;;;;4984454;28;20621;-72
2023/01/14 10:53:23;;;;;;;8.00;1.30;;;;;;;;;;4982436;28;20027;-71
2023/01/14 10:55:52;;;;;;;5.18;1.25;;;;;;;;;;4983380;28;20049;-71
2023/01/14 10:58:26;;;;;;;7.63;1.90;;;;;;;;;;4985414;28;20022;-71
2023/01/14 11:00:58;;;;;;;9.13;1.58;;;;;;;;;;4983237;28;20847;-71
2023/01/14 11:03:29;;;;;;;4.85;1.20;;;;;;;;;;4981939;28;20038;-71
2023/01/14 11:05:56;;;;;;;10.70;1.75;;;;;;;;;;4985183;28;20426;-71
2023/01/14 11:08:32;;;;;;;5.25;1.50;;;;;;;;;;4981934;28;20159;-72
2023/01/14 11:11:03;;;;;;;4.03;1.48;;;;;;;;;;4982757;28;20077;-71
2023/01/14 11:13:33;;;;;;;5.03;2.03;;;;;;;;;;4982720;28;20117;-72
2023/01/14 11:16:03;;;;;;;8.35;1.80;;;;;;;;;;4985653;28;20597;-71
2023/01/14 11:18:33;;;;;;;12.45;1.58;;;;;;;;;;4986003;28;20719;-72
2023/01/14 11:21:02;;;;;;;6.88;1.10;;;;;;;;;;4982846;28;20150;-71
2023/01/14 11:23:29;;;;;;;6.95;1.60;;;;;;;;;;4985564;28;20050;-71
2023/01/14 11:25:57;;;;;;;7.00;1.83;;;;;;;;;;4983743;28;20081;-71
2023/01/14 11:28:24;;;;;;;5.97;1.85;;;;;;;;;;4980109;28;20022;-72
2023/01/14 11:30:52;;;;;;;10.18;2.15;;;;;;;;;;4977789;28;20030;-72
2023/01/14 11:33:23;;;;;;;10.63;2.08;;;;;;;;;;4982468;28;20032;-72
2023/01/14 11:35:51;;;;;;;6.57;1.50;;;;;;;;;;4979228;28;20081;-71
2023/01/14 11:38:22;;;;;;;7.57;1.88;;;;;;;;;;4979186;28;20153;-72
2023/01/14 11:44:03;;;;;;;9.82;2.30;;;;;;;;;;4980910;28;20037;-71
2023/01/14 11:46:30;;;;;;;5.15;1.70;;;;;;;;;;4961758;28;20041;-71
2023/01/14 11:49:14;;;;;;;6.00;2.03;;;;;;;;;;4982802;28;20042;-71
2023/01/14 11:51:40;;;;;;;13.57;2.10;;;;;;;;;;4981697;28;20109;-72
2023/01/14 11:54:19;;;;;;;9.27;2.30;;;;;;;;;;4981786;28;20022;-71
2023/01/14 11:56:46;;;;;;;8.43;2.28;;;;;;;;;;4982359;28;20022;-72
2023/01/14 11:59:19;;;;;;;16.63;2.38;;;;;;;;;;4980887;28;20022;-72
2023/01/14 12:01:51;;;;;;;8.52;1.90;;;;;;;;;;4983285;28;20036;-72
2023/01/14 12:04:19;;;;;;;14.23;1.92;;;;;;;;;;4978398;28;20047;-71
2023/01/14 12:06:47;;;;;;;9.40;2.00;;;;;;;;;;4976089;28;20045;-72
2023/01/14 12:09:22;;;;;;;4.38;1.42;;;;;;;;;;4984227;28;20083;-72
2023/01/14 12:12:03;;;;;;;8.27;1.80;;;;;;;;;;4980640;28;20376;-72
2023/01/14 12:17:29;;;;;;;10.85;2.10;;;;;;;;;;4981594;28;20073;-71
2023/01/14 12:20:14;;;;;;;6.63;1.70;;;;;;;;;;4980334;28;20034;-71
2023/01/14 12:22:47;;;;;;;11.93;1.98;;;;;;;;;;4981744;28;20035;-72
2023/01/14 12:25:19;;;;;;;9.05;2.08;;;;;;;;;;4983568;28;20030;-72
2023/01/14 12:27:49;;;;;;;9.75;2.58;;;;;;;;;;4981181;28;20029;-71
2023/01/14 12:30:26;;;;;;;9.73;2.03;;;;;;;;;;4980614;28;20463;-71
2023/01/14 12:33:05;;;;;;;13.80;3.92;;;;;;;;;;4982562;28;20033;-71
2023/01/14 12:35:38;;;;;;;10.93;2.47;;;;;;;;;;4984449;28;20027;-71
2023/01/14 12:45:41;;;;;;;10.65;2.00;;;;;;;;;;4979014;28;20039;-72
2023/01/14 12:46:25;;;;;;;20.50;2.80;;;;;;;;;;4982995;28;20070;-72
2023/01/14 12:48:51;;;;;;;15.63;2.40;;;;;;;;;;4986343;28;20589;-74
2023/01/14 12:51:22;;;;;;;19.08;2.28;;;;;;;;;;4979322;28;20022;-73
2023/01/14 12:53:57;;;;;;;22.10;3.13;;;;;;;;;;4978347;28;20030;-72
2023/01/14 12:56:26;;;;;;;13.20;2.05;;;;;;;;;;4978681;28;20026;-74
2023/01/14 12:58:58;;;;;;;9.00;1.70;;;;;;;;;;4982830;28;20030;-73
2023/01/14 13:01:25;;;;;;;12.48;1.85;;;;;;;;;;4982217;28;20038;-73
2023/01/14 13:03:57;;;;;;;8.07;1.83;;;;;;;;;;4977051;28;20054;-74
2023/01/14 13:06:32;;;;;;;9.27;1.95;;;;;;;;;;4980201;28;20062;-74
2023/01/14 13:08:59;;;;;;;10.60;2.30;;;;;;;;;;4973779;28;20023;-75
2023/01/14 13:11:37;;;;;;;8.35;2.10;;;;;;;;;;4977373;28;20106;-75
2023/01/14 13:14:04;;;;;;;10.30;2.08;;;;;;;;;;4974304;28;20030;-75
2023/01/14 13:16:36;;;;;;;9.38;1.60;;;;;;;;;;4976019;28;20884;-75
2023/01/14 13:19:07;;;;;;;9.05;2.10;;;;;;;;;;4977152;28;20025;-74
2023/01/14 13:21:51;;;;;;;12.93;2.28;;;;;;;;;;4978091;28;20044;-75
2023/01/14 13:24:37;;;;;;;8.40;1.70;;;;;;;;;;4974887;28;20030;-75
2023/01/14 13:27:36;;;;;;;9.18;1.92;;;;;;;;;;4974778;28;20045;-75
2023/01/14 13:30:20;;;;;;;15.15;2.88;;;;;;;;;;4941536;28;20112;-75
2023/01/14 13:32:52;;;;;;;13.30;2.13;;;;;;;;;;4973056;28;20101;-75
2023/01/14 13:35:19;;;;;;;15.35;3.13;;;;;;;;;;4975975;28;20019;-75
2023/01/14 13:37:46;;;;;;;9.23;2.30;;;;;;;;;;4978903;28;20033;-75
2023/01/14 13:40:18;;;;;;;11.55;2.80;;;;;;;;;;4972025;28;20543;-75
2023/01/14 13:42:44;;;;;;;15.43;3.10;;;;;;;;;;4974344;28;20030;-75
2023/01/14 13:45:27;;;;;;;17.77;2.75;;;;;;;;;;4975901;28;20116;-75
2023/01/14 13:47:55;;;;;;;13.20;3.05;;;;;;;;;;4977528;28;20026;-75
2023/01/14 13:50:25;;;;;;;16.20;2.55;;;;;;;;;;4972093;28;20018;-74
2023/01/14 13:52:54;;;;;;;12.98;2.85;;;;;;;;;;4976205;28;20053;-75
2023/01/14 13:55:26;;;;;;;11.43;2.60;;;;;;;;;;4969618;28;20499;-75
2023/01/14 13:57:54;;;;;;;13.35;3.45;;;;;;;;;;4980474;28;20117;-75
2023/01/14 14:00:20;;;;;;;27.52;3.85;;;;;;;;;;4972319;28;20034;-75
2023/01/14 14:02:48;;;;;;;10.80;3.22;;;;;;;;;;4976106;28;20511;-75
2023/01/14 14:05:20;;;;;;;10.88;3.00;;;;;;;;;;4971858;28;20514;-75
2023/01/14 14:07:47;;;;;;;10.77;2.45;;;;;;;;;;4979594;28;20026;-74
2023/01/14 14:10:15;;;;;;;9.20;2.38;;;;;;;;;;4976128;28;20070;-75
2023/01/14 14:15:28;;;;;;;12.40;2.67;;;;;;;;;;4976715;28;20100;-75
2023/01/14 14:17:56;;;;;;;8.07;3.60;;;;;;;;;;4974217;28;20061;-74
2023/01/14 14:20:23;;;;;;;11.00;2.20;;;;;;;;;;4974131;28;20126;-76
2023/01/14 14:23:02;;;;;;;9.45;2.20;;;;;;;;;;4976288;28;20031;-75
2023/01/14 14:25:43;;;;;;;11.88;3.38;;;;;;;;;;4971291;28;20039;-75
2023/01/14 14:28:15;;;;;;;14.80;2.15;;;;;;;;;;4978002;28;20523;-75
2023/01/14 14:30:47;;;;;;;8.57;1.90;;;;;;;;;;4975674;28;20027;-75
2023/01/14 14:33:13;;;;;;;;;;;;;;;;;;4972968;28;20033;-75
2023/01/14 14:35:41;;;;;;;9.70;2.40;;;;;;;;;;4978514;28;20382;-75
2023/01/14 14:38:14;;;;;;;11.05;2.10;;;;;;;;;;4970548;28;20026;-76
2023/01/14 14:40:42;;;;;;;11.70;2.25;;;;;;;;;;4976565;28;20031;-75
2023/01/14 14:43:21;;;;;;;11.73;2.53;;;;;;;;;;4973942;28;20023;-75
2023/01/14 14:45:58;;;;;;;14.95;2.65;;;;;;;;;;4977078;28;20034;-75
2023/01/14 14:48:27;;;;;;;10.68;2.10;;;;;;;;;;4970297;28;20142;-75
2023/01/14 14:50:53;;;;;;;14.30;2.20;;;;;;;;;;4974809;28;20050;-75
2023/01/14 14:53:26;;;;;;;12.77;2.63;;;;;;;;;;4972402;28;20033;-74
2023/01/14 14:55:53;;;;;;;8.68;2.55;;;;;;;;;;4972394;28;20027;-75
2023/01/14 14:58:20;;;;;;;14.75;3.22;;;;;;;;;;4975842;28;20046;-75
2023/01/14 15:00:52;;;;;;;11.23;2.80;;;;;;;;;;4974515;28;20161;-75
2023/01/14 15:03:20;;;;;;;9.02;2.80;;;;;;;;;;4974878;28;20418;-75
2023/01/14 15:05:47;;;;;;;11.95;2.92;;;;;;;;;;4972229;28;20157;-75
2023/01/14 15:08:19;;;;;;;9.40;3.22;;;;;;;;;;4978612;28;20137;-75
2023/01/14 15:10:45;;;;;;;7.65;3.25;;;;;;;;;;4975920;28;20022;-75
2023/01/14 15:13:16;;;;;;;11.05;2.95;;;;;;;;;;4976416;28;20022;-75
2023/01/14 15:15:43;;;;;;;13.37;3.47;;;;;;;;;;4977955;28;20357;-75
2023/01/14 15:18:32;;;;;;;12.77;3.72;;;;;;;;;;4975262;28;20284;-75
2023/01/14 15:20:58;;;;;;;20.58;4.00;;;;;;;;;;4969169;28;20042;-75
2023/01/14 15:23:24;;;;;;;14.05;3.50;;;;;;;;;;4975041;28;20026;-75
2023/01/14 15:25:51;;;;;;;9.57;3.30;;;;;;;;;;4971811;28;20035;-75
2023/01/14 15:28:18;;;;;;;11.75;3.25;;;;;;;;;;4973016;28;20057;-75
2023/01/14 15:30:55;;;;;;;12.60;4.10;;;;;;;;;;4975585;28;20069;-74
2023/01/14 15:33:26;;;;;;;17.95;4.65;;;;;;;;;;4975357;28;20026;-75
2023/01/14 15:35:59;;;;;;;11.52;3.75;;;;;;;;;;4971688;28;20033;-75